sensor_id;sensor_type;location;lat;lon;timestamp;temperature;humidity
32334;DHT22;18810;53.040;8.850;2022-08-14T00:00:19;25.30;89.80
32334;DHT22;18810;53.040;8.850;2022-08-14T00:02:45;25.20;90.20
32334;DHT22;18810;53.040;8.850;2022-08-14T00:05:17;25.20;90.40
32334;DHT22;18810;53.040;8.850;2022-08-14T00:07:43;25.20;90.60
32334;DHT22;18810;53.040;8.850;2022-08-14T00:10:12;25.20;90.70
32334;DHT22;18810;53.040;8.850;2022-08-14T00:12:45;25.10;90.70
32334;DHT22;18810;53.040;8.850;2022-08-14T00:15:18;25.10;91.00
32334;DHT22;18810;53.040;8.850;2022-08-14T00:17:44;25.10;91.00
32334;DHT22;18810;53.040;8.850;2022-08-14T00:20:10;25.10;91.20
32334;DHT22;18810;53.040;8.850;2022-08-14T00:22:37;25.10;91.10
32334;DHT22;18810;53.040;8.850;2022-08-14T00:25:07;25.00;91.20
32334;DHT22;18810;53.040;8.850;2022-08-14T00:27:33;25.00;91.30
32334;DHT22;18810;53.040;8.850;2022-08-14T00:29:59;25.00;91.60
32334;DHT22;18810;53.040;8.850;2022-08-14T00:32:24;25.00;91.90
32334;DHT22;18810;53.040;8.850;2022-08-14T00:34:50;24.90;92.10
32334;DHT22;18810;53.040;8.850;2022-08-14T00:37:16;24.90;92.20
32334;DHT22;18810;53.040;8.850;2022-08-14T00:39:42;24.90;92.40
32334;DHT22;18810;53.040;8.850;2022-08-14T00:42:07;24.90;92.30
32334;DHT22;18810;53.040;8.850;2022-08-14T00:44:33;24.90;92.40
32334;DHT22;18810;53.040;8.850;2022-08-14T00:47:03;24.90;92.40
32334;DHT22;18810;53.040;8.850;2022-08-14T00:49:33;24.90;92.50
32334;DHT22;18810;53.040;8.850;2022-08-14T00:51:59;24.90;92.40
32334;DHT22;18810;53.040;8.850;2022-08-14T00:54:25;24.90;92.60
32334;DHT22;18810;53.040;8.850;2022-08-14T00:56:52;24.90;92.70
32334;DHT22;18810;53.040;8.850;2022-08-14T00:59:17;24.90;92.60
32334;DHT22;18810;53.040;8.850;2022-08-14T01:01:44;24.80;92.70
32334;DHT22;18810;53.040;8.850;2022-08-14T01:04:10;24.70;92.90
32334;DHT22;18810;53.040;8.850;2022-08-14T01:06:36;24.90;92.80
32334;DHT22;18810;53.040;8.850;2022-08-14T01:09:03;24.80;92.60
32334;DHT22;18810;53.040;8.850;2022-08-14T01:11:29;24.80;92.80
32334;DHT22;18810;53.040;8.850;2022-08-14T01:13:55;24.80;93.00
32334;DHT22;18810;53.040;8.850;2022-08-14T01:16:25;24.70;92.90
32334;DHT22;18810;53.040;8.850;2022-08-14T01:18:51;24.80;93.00
32334;DHT22;18810;53.040;8.850;2022-08-14T01:21:37;24.60;93.30
32334;DHT22;18810;53.040;8.850;2022-08-14T01:24:04;24.70;93.30
32334;DHT22;18810;53.040;8.850;2022-08-14T01:26:32;24.80;93.20
32334;DHT22;18810;53.040;8.850;2022-08-14T01:29:00;24.80;93.10
32334;DHT22;18810;53.040;8.850;2022-08-14T01:31:29;24.50;93.40
32334;DHT22;18810;53.040;8.850;2022-08-14T01:33:58;24.60;93.70
32334;DHT22;18810;53.040;8.850;2022-08-14T01:36:25;24.40;93.90
32334;DHT22;18810;53.040;8.850;2022-08-14T01:38:53;24.40;94.40
32334;DHT22;18810;53.040;8.850;2022-08-14T01:41:24;24.10;94.60
32334;DHT22;18810;53.040;8.850;2022-08-14T01:43:59;24.00;94.80
32334;DHT22;18810;53.040;8.850;2022-08-14T01:46:31;24.20;94.90
32334;DHT22;18810;53.040;8.850;2022-08-14T01:48:59;23.90;95.20
32334;DHT22;18810;53.040;8.850;2022-08-14T01:51:27;24.00;95.30
32334;DHT22;18810;53.040;8.850;2022-08-14T01:54:04;23.90;95.70
32334;DHT22;18810;53.040;8.850;2022-08-14T01:56:33;24.20;96.00
32334;DHT22;18810;53.040;8.850;2022-08-14T02:01:34;23.80;95.90
32334;DHT22;18810;53.040;8.850;2022-08-14T02:04:04;23.90;96.00
32334;DHT22;18810;53.040;8.850;2022-08-14T02:11:24;23.90;96.60
32334;DHT22;18810;53.040;8.850;2022-08-14T02:16:22;23.80;96.80
32334;DHT22;18810;53.040;8.850;2022-08-14T02:18:56;23.90;96.90
32334;DHT22;18810;53.040;8.850;2022-08-14T02:21:23;23.80;97.20
32334;DHT22;18810;53.040;8.850;2022-08-14T02:23:50;23.60;97.30
32334;DHT22;18810;53.040;8.850;2022-08-14T02:26:23;23.80;97.10
32334;DHT22;18810;53.040;8.850;2022-08-14T02:28:52;23.80;96.90
32334;DHT22;18810;53.040;8.850;2022-08-14T02:31:18;23.70;97.00
32334;DHT22;18810;53.040;8.850;2022-08-14T02:33:44;23.90;97.20
32334;DHT22;18810;53.040;8.850;2022-08-14T02:36:13;23.60;97.50
32334;DHT22;18810;53.040;8.850;2022-08-14T02:38:38;23.70;97.60
32334;DHT22;18810;53.040;8.850;2022-08-14T02:41:08;23.70;97.50
32334;DHT22;18810;53.040;8.850;2022-08-14T02:43:34;23.70;97.80
32334;DHT22;18810;53.040;8.850;2022-08-14T02:46:00;23.80;98.00
32334;DHT22;18810;53.040;8.850;2022-08-14T02:48:27;23.60;97.70
32334;DHT22;18810;53.040;8.850;2022-08-14T02:51:02;24.00;98.00
32334;DHT22;18810;53.040;8.850;2022-08-14T02:53:28;23.60;97.90
32334;DHT22;18810;53.040;8.850;2022-08-14T02:55:54;23.80;98.00
32334;DHT22;18810;53.040;8.850;2022-08-14T02:58:21;24.00;97.90
32334;DHT22;18810;53.040;8.850;2022-08-14T03:00:48;23.90;97.80
32334;DHT22;18810;53.040;8.850;2022-08-14T03:03:14;23.60;97.80
32334;DHT22;18810;53.040;8.850;2022-08-14T03:05:41;23.80;97.90
32334;DHT22;18810;53.040;8.850;2022-08-14T03:08:10;23.60;97.90
32334;DHT22;18810;53.040;8.850;2022-08-14T03:10:36;23.70;98.30
32334;DHT22;18810;53.040;8.850;2022-08-14T03:13:02;23.40;98.50
32334;DHT22;18810;53.040;8.850;2022-08-14T03:15:30;23.40;98.60
32334;DHT22;18810;53.040;8.850;2022-08-14T03:17:57;23.40;98.60
32334;DHT22;18810;53.040;8.850;2022-08-14T03:20:24;23.70;98.60
32334;DHT22;18810;53.040;8.850;2022-08-14T03:25:17;23.60;98.60
32334;DHT22;18810;53.040;8.850;2022-08-14T03:30:12;23.70;98.90
32334;DHT22;18810;53.040;8.850;2022-08-14T03:35:04;23.40;99.20
32334;DHT22;18810;53.040;8.850;2022-08-14T03:39:58;23.40;99.60
32334;DHT22;18810;53.040;8.850;2022-08-14T03:44:50;23.30;99.40
32334;DHT22;18810;53.040;8.850;2022-08-14T03:47:16;23.30;99.60
32334;DHT22;18810;53.040;8.850;2022-08-14T03:49:43;23.40;99.60
32334;DHT22;18810;53.040;8.850;2022-08-14T03:54:38;23.10;99.80
32334;DHT22;18810;53.040;8.850;2022-08-14T03:57:04;23.20;99.80
32334;DHT22;18810;53.040;8.850;2022-08-14T03:59:31;23.20;99.90
32334;DHT22;18810;53.040;8.850;2022-08-14T04:09:16;23.50;99.90
32334;DHT22;18810;53.040;8.850;2022-08-14T04:11:41;23.20;99.90
32334;DHT22;18810;53.040;8.850;2022-08-14T04:14:07;23.00;99.90
32334;DHT22;18810;53.040;8.850;2022-08-14T04:19:00;23.00;99.90
32334;DHT22;18810;53.040;8.850;2022-08-14T04:21:28;23.00;99.90
32334;DHT22;18810;53.040;8.850;2022-08-14T04:23:56;22.70;99.90
32334;DHT22;18810;53.040;8.850;2022-08-14T04:26:23;23.00;99.90
32334;DHT22;18810;53.040;8.850;2022-08-14T04:31:17;23.00;99.90
32334;DHT22;18810;53.040;8.850;2022-08-14T04:33:43;23.10;99.90
32334;DHT22;18810;53.040;8.850;2022-08-14T04:36:09;23.20;99.90
32334;DHT22;18810;53.040;8.850;2022-08-14T04:38:35;23.10;99.90
32334;DHT22;18810;53.040;8.850;2022-08-14T04:41:19;22.90;99.90
32334;DHT22;18810;53.040;8.850;2022-08-14T04:44:04;22.90;99.90
32334;DHT22;18810;53.040;8.850;2022-08-14T04:46:30;22.90;99.90
32334;DHT22;18810;53.040;8.850;2022-08-14T04:48:58;23.00;99.90
32334;DHT22;18810;53.040;8.850;2022-08-14T04:51:23;22.90;99.90
32334;DHT22;18810;53.040;8.850;2022-08-14T04:53:51;23.10;99.90
32334;DHT22;18810;53.040;8.850;2022-08-14T04:56:20;23.10;99.90
32334;DHT22;18810;53.040;8.850;2022-08-14T04:58:50;23.10;99.90
32334;DHT22;18810;53.040;8.850;2022-08-14T05:01:22;23.10;99.90
32334;DHT22;18810;53.040;8.850;2022-08-14T05:11:08;23.20;99.90
32334;DHT22;18810;53.040;8.850;2022-08-14T05:13:36;23.30;99.90
32334;DHT22;18810;53.040;8.850;2022-08-14T05:16:03;23.30;99.90
32334;DHT22;18810;53.040;8.850;2022-08-14T05:18:36;23.50;99.90
32334;DHT22;18810;53.040;8.850;2022-08-14T05:21:07;23.40;99.90
32334;DHT22;18810;53.040;8.850;2022-08-14T05:23:37;23.30;99.90
32334;DHT22;18810;53.040;8.850;2022-08-14T05:26:04;23.40;99.90
32334;DHT22;18810;53.040;8.850;2022-08-14T05:28:40;23.30;99.90
32334;DHT22;18810;53.040;8.850;2022-08-14T05:31:13;23.40;99.90
32334;DHT22;18810;53.040;8.850;2022-08-14T05:33:42;23.50;99.90
32334;DHT22;18810;53.040;8.850;2022-08-14T05:36:09;23.40;99.90
32334;DHT22;18810;53.040;8.850;2022-08-14T05:38:38;23.70;99.90
32334;DHT22;18810;53.040;8.850;2022-08-14T05:41:10;23.50;99.90
32334;DHT22;18810;53.040;8.850;2022-08-14T05:43:37;23.60;99.90
32334;DHT22;18810;53.040;8.850;2022-08-14T05:46:04;23.80;99.90
32334;DHT22;18810;53.040;8.850;2022-08-14T05:48:30;23.90;99.90
32334;DHT22;18810;53.040;8.850;2022-08-14T05:50:56;23.80;99.90
32334;DHT22;18810;53.040;8.850;2022-08-14T05:53:24;23.90;99.70
32334;DHT22;18810;53.040;8.850;2022-08-14T05:58:16;24.30;99.30
32334;DHT22;18810;53.040;8.850;2022-08-14T06:00:44;24.50;98.30
32334;DHT22;18810;53.040;8.850;2022-08-14T06:03:15;24.80;98.20
32334;DHT22;18810;53.040;8.850;2022-08-14T06:05:52;25.10;97.60
32334;DHT22;18810;53.040;8.850;2022-08-14T06:10:47;25.00;96.80
32334;DHT22;18810;53.040;8.850;2022-08-14T06:13:13;25.00;97.40
32334;DHT22;18810;53.040;8.850;2022-08-14T06:15:39;24.70;97.50
32334;DHT22;18810;53.040;8.850;2022-08-14T06:18:06;24.60;97.80
32334;DHT22;18810;53.040;8.850;2022-08-14T06:20:32;24.40;98.40
32334;DHT22;18810;53.040;8.850;2022-08-14T06:22:58;24.80;98.40
32334;DHT22;18810;53.040;8.850;2022-08-14T06:25:24;25.30;97.40
32334;DHT22;18810;53.040;8.850;2022-08-14T06:27:50;25.80;96.50
32334;DHT22;18810;53.040;8.850;2022-08-14T06:30:18;26.20;95.60
32334;DHT22;18810;53.040;8.850;2022-08-14T06:32:45;26.20;95.00
32334;DHT22;18810;53.040;8.850;2022-08-14T06:35:12;26.10;95.00
32334;DHT22;18810;53.040;8.850;2022-08-14T06:37:44;25.90;95.30
32334;DHT22;18810;53.040;8.850;2022-08-14T06:40:12;25.80;95.60
32334;DHT22;18810;53.040;8.850;2022-08-14T06:42:39;25.70;95.90
32334;DHT22;18810;53.040;8.850;2022-08-14T06:45:06;25.70;96.10
32334;DHT22;18810;53.040;8.850;2022-08-14T06:47:34;25.40;96.30
32334;DHT22;18810;53.040;8.850;2022-08-14T06:50:01;25.60;96.40
32334;DHT22;18810;53.040;8.850;2022-08-14T06:52:26;25.60;96.20
32334;DHT22;18810;53.040;8.850;2022-08-14T06:54:52;26.00;96.00
32334;DHT22;18810;53.040;8.850;2022-08-14T06:57:18;26.50;95.70
32334;DHT22;18810;53.040;8.850;2022-08-14T06:59:43;26.80;94.80
32334;DHT22;18810;53.040;8.850;2022-08-14T07:04:54;27.30;93.20
32334;DHT22;18810;53.040;8.850;2022-08-14T07:07:39;27.30;93.30
32334;DHT22;18810;53.040;8.850;2022-08-14T07:10:07;27.40;93.40
32334;DHT22;18810;53.040;8.850;2022-08-14T07:12:33;27.70;93.10
32334;DHT22;18810;53.040;8.850;2022-08-14T07:14:59;27.70;92.50
32334;DHT22;18810;53.040;8.850;2022-08-14T07:17:25;27.90;92.20
32334;DHT22;18810;53.040;8.850;2022-08-14T07:19:51;28.10;92.10
32334;DHT22;18810;53.040;8.850;2022-08-14T07:22:17;28.20;91.70
32334;DHT22;18810;53.040;8.850;2022-08-14T07:24:42;28.00;91.60
32334;DHT22;18810;53.040;8.850;2022-08-14T07:27:08;28.10;91.30
32334;DHT22;18810;53.040;8.850;2022-08-14T07:29:34;28.30;91.20
32334;DHT22;18810;53.040;8.850;2022-08-14T07:31:59;28.60;90.70
32334;DHT22;18810;53.040;8.850;2022-08-14T07:34:25;28.40;90.60
32334;DHT22;18810;53.040;8.850;2022-08-14T07:36:51;28.50;90.60
32334;DHT22;18810;53.040;8.850;2022-08-14T07:39:17;28.50;90.60
32334;DHT22;18810;53.040;8.850;2022-08-14T07:41:42;28.70;90.30
32334;DHT22;18810;53.040;8.850;2022-08-14T07:44:09;28.70;90.50
32334;DHT22;18810;53.040;8.850;2022-08-14T07:46:38;29.10;90.00
32334;DHT22;18810;53.040;8.850;2022-08-14T07:49:05;29.30;89.30
32334;DHT22;18810;53.040;8.850;2022-08-14T07:51:32;29.40;88.40
32334;DHT22;18810;53.040;8.850;2022-08-14T07:53:59;29.80;87.60
32334;DHT22;18810;53.040;8.850;2022-08-14T07:56:25;29.80;87.20
32334;DHT22;18810;53.040;8.850;2022-08-14T07:58:52;29.80;86.10
32334;DHT22;18810;53.040;8.850;2022-08-14T08:01:18;29.90;86.30
32334;DHT22;18810;53.040;8.850;2022-08-14T08:03:48;30.00;85.40
32334;DHT22;18810;53.040;8.850;2022-08-14T08:06:15;29.90;86.00
32334;DHT22;18810;53.040;8.850;2022-08-14T08:08:42;30.10;85.50
32334;DHT22;18810;53.040;8.850;2022-08-14T08:11:10;30.10;85.80
32334;DHT22;18810;53.040;8.850;2022-08-14T08:13:40;30.30;84.70
32334;DHT22;18810;53.040;8.850;2022-08-14T08:16:06;30.40;85.10
32334;DHT22;18810;53.040;8.850;2022-08-14T08:18:32;30.60;83.90
32334;DHT22;18810;53.040;8.850;2022-08-14T08:20:58;30.80;83.10
32334;DHT22;18810;53.040;8.850;2022-08-14T08:23:24;31.00;82.50
32334;DHT22;18810;53.040;8.850;2022-08-14T08:25:53;31.10;81.90
32334;DHT22;18810;53.040;8.850;2022-08-14T08:28:20;31.20;81.10
32334;DHT22;18810;53.040;8.850;2022-08-14T08:30:57;31.20;81.40
32334;DHT22;18810;53.040;8.850;2022-08-14T08:33:25;31.40;81.00
32334;DHT22;18810;53.040;8.850;2022-08-14T08:35:53;31.40;81.20
32334;DHT22;18810;53.040;8.850;2022-08-14T08:38:23;31.70;79.70
32334;DHT22;18810;53.040;8.850;2022-08-14T08:40:50;31.70;79.10
32334;DHT22;18810;53.040;8.850;2022-08-14T08:43:31;31.90;78.60
32334;DHT22;18810;53.040;8.850;2022-08-14T08:46:11;31.90;78.80
32334;DHT22;18810;53.040;8.850;2022-08-14T08:48:52;32.30;76.80
32334;DHT22;18810;53.040;8.850;2022-08-14T08:51:26;32.30;77.30
32334;DHT22;18810;53.040;8.850;2022-08-14T08:53:58;32.40;77.30
32334;DHT22;18810;53.040;8.850;2022-08-14T08:56:44;32.80;76.00
32334;DHT22;18810;53.040;8.850;2022-08-14T08:59:25;32.90;76.00
32334;DHT22;18810;53.040;8.850;2022-08-14T09:01:54;33.00;75.10
32334;DHT22;18810;53.040;8.850;2022-08-14T09:04:22;33.00;74.50
32334;DHT22;18810;53.040;8.850;2022-08-14T09:06:49;33.00;74.20
32334;DHT22;18810;53.040;8.850;2022-08-14T09:11:44;32.80;74.20
32334;DHT22;18810;53.040;8.850;2022-08-14T09:14:10;32.60;74.60
32334;DHT22;18810;53.040;8.850;2022-08-14T09:16:36;32.30;75.30
32334;DHT22;18810;53.040;8.850;2022-08-14T09:19:02;32.40;75.70
32334;DHT22;18810;53.040;8.850;2022-08-14T09:21:27;32.50;75.40
32334;DHT22;18810;53.040;8.850;2022-08-14T09:23:54;33.10;74.10
32334;DHT22;18810;53.040;8.850;2022-08-14T09:26:19;33.40;73.40
32334;DHT22;18810;53.040;8.850;2022-08-14T09:28:45;33.30;72.20
32334;DHT22;18810;53.040;8.850;2022-08-14T09:31:12;33.40;73.00
32334;DHT22;18810;53.040;8.850;2022-08-14T09:34:03;33.60;73.00
32334;DHT22;18810;53.040;8.850;2022-08-14T09:36:37;34.20;71.10
32334;DHT22;18810;53.040;8.850;2022-08-14T09:47:01;34.80;68.00
32334;DHT22;18810;53.040;8.850;2022-08-14T09:49:35;34.90;68.00
32334;DHT22;18810;53.040;8.850;2022-08-14T09:52:14;34.70;67.60
32334;DHT22;18810;53.040;8.850;2022-08-14T09:54:46;34.80;67.30
32334;DHT22;18810;53.040;8.850;2022-08-14T09:57:26;34.50;68.00
32334;DHT22;18810;53.040;8.850;2022-08-14T09:59:53;34.50;67.70
32334;DHT22;18810;53.040;8.850;2022-08-14T10:02:23;34.40;67.80
32334;DHT22;18810;53.040;8.850;2022-08-14T10:05:09;34.50;67.80
32334;DHT22;18810;53.040;8.850;2022-08-14T10:07:44;34.30;68.10
32334;DHT22;18810;53.040;8.850;2022-08-14T10:10:36;34.70;68.40
32334;DHT22;18810;53.040;8.850;2022-08-14T10:13:19;35.00;66.30
32334;DHT22;18810;53.040;8.850;2022-08-14T10:15:45;35.00;66.40
32334;DHT22;18810;53.040;8.850;2022-08-14T10:18:15;34.90;65.50
32334;DHT22;18810;53.040;8.850;2022-08-14T10:20:57;35.10;66.10
32334;DHT22;18810;53.040;8.850;2022-08-14T10:23:25;35.40;65.00
32334;DHT22;18810;53.040;8.850;2022-08-14T10:25:56;35.40;63.80
32334;DHT22;18810;53.040;8.850;2022-08-14T10:28:23;35.00;65.10
32334;DHT22;18810;53.040;8.850;2022-08-14T10:30:50;34.90;66.50
32334;DHT22;18810;53.040;8.850;2022-08-14T10:33:31;35.00;65.50
32334;DHT22;18810;53.040;8.850;2022-08-14T10:35:58;35.20;64.70
32334;DHT22;18810;53.040;8.850;2022-08-14T10:38:32;35.60;64.00
32334;DHT22;18810;53.040;8.850;2022-08-14T10:43:42;36.30;62.40
32334;DHT22;18810;53.040;8.850;2022-08-14T10:46:19;36.00;62.50
32334;DHT22;18810;53.040;8.850;2022-08-14T10:48:59;35.90;62.30
32334;DHT22;18810;53.040;8.850;2022-08-14T10:51:28;36.00;62.90
32334;DHT22;18810;53.040;8.850;2022-08-14T10:53:56;36.20;61.70
32334;DHT22;18810;53.040;8.850;2022-08-14T10:56:30;36.10;61.50
32334;DHT22;18810;53.040;8.850;2022-08-14T10:59:05;36.30;60.90
32334;DHT22;18810;53.040;8.850;2022-08-14T11:01:37;36.20;60.60
32334;DHT22;18810;53.040;8.850;2022-08-14T11:04:03;36.00;60.80
32334;DHT22;18810;53.040;8.850;2022-08-14T11:06:30;36.20;60.10
32334;DHT22;18810;53.040;8.850;2022-08-14T11:08:57;36.10;60.20
32334;DHT22;18810;53.040;8.850;2022-08-14T11:11:24;36.20;59.00
32334;DHT22;18810;53.040;8.850;2022-08-14T11:13:54;36.40;58.60
32334;DHT22;18810;53.040;8.850;2022-08-14T11:16:22;36.00;58.70
32334;DHT22;18810;53.040;8.850;2022-08-14T11:18:50;35.30;58.50
32334;DHT22;18810;53.040;8.850;2022-08-14T11:21:19;35.20;59.00
32334;DHT22;18810;53.040;8.850;2022-08-14T11:23:48;35.20;59.60
32334;DHT22;18810;53.040;8.850;2022-08-14T11:26:16;35.00;60.30
32334;DHT22;18810;53.040;8.850;2022-08-14T11:28:47;35.40;59.90
32334;DHT22;18810;53.040;8.850;2022-08-14T11:31:13;35.40;60.60
32334;DHT22;18810;53.040;8.850;2022-08-14T11:33:40;35.60;60.10
32334;DHT22;18810;53.040;8.850;2022-08-14T11:36:08;36.10;59.50
32334;DHT22;18810;53.040;8.850;2022-08-14T11:38:38;36.90;57.40
32334;DHT22;18810;53.040;8.850;2022-08-14T11:41:05;36.80;57.90
32334;DHT22;18810;53.040;8.850;2022-08-14T11:43:37;37.00;58.10
32334;DHT22;18810;53.040;8.850;2022-08-14T11:46:04;36.90;57.70
32334;DHT22;18810;53.040;8.850;2022-08-14T11:48:30;37.00;57.70
32334;DHT22;18810;53.040;8.850;2022-08-14T11:50:56;37.40;57.40
32334;DHT22;18810;53.040;8.850;2022-08-14T11:53:29;37.30;57.50
32334;DHT22;18810;53.040;8.850;2022-08-14T11:55:58;37.30;57.50
32334;DHT22;18810;53.040;8.850;2022-08-14T11:58:32;37.40;57.00
32334;DHT22;18810;53.040;8.850;2022-08-14T12:01:00;36.70;57.20
32334;DHT22;18810;53.040;8.850;2022-08-14T12:03:40;36.50;57.80
32334;DHT22;18810;53.040;8.850;2022-08-14T12:06:19;36.90;57.00
32334;DHT22;18810;53.040;8.850;2022-08-14T12:08:45;36.60;56.70
32334;DHT22;18810;53.040;8.850;2022-08-14T12:11:13;36.60;57.40
32334;DHT22;18810;53.040;8.850;2022-08-14T12:13:41;36.20;57.60
32334;DHT22;18810;53.040;8.850;2022-08-14T12:16:12;35.90;58.60
32334;DHT22;18810;53.040;8.850;2022-08-14T12:18:40;36.00;58.00
32334;DHT22;18810;53.040;8.850;2022-08-14T12:21:20;36.10;58.50
32334;DHT22;18810;53.040;8.850;2022-08-14T12:24:02;37.00;57.70
32334;DHT22;18810;53.040;8.850;2022-08-14T12:26:28;37.50;56.20
32334;DHT22;18810;53.040;8.850;2022-08-14T12:29:08;36.70;55.60
32334;DHT22;18810;53.040;8.850;2022-08-14T12:31:36;35.90;56.70
32334;DHT22;18810;53.040;8.850;2022-08-14T12:34:07;35.90;57.50
32334;DHT22;18810;53.040;8.850;2022-08-14T12:36:33;36.00;56.90
32334;DHT22;18810;53.040;8.850;2022-08-14T12:38:59;36.30;57.00
32334;DHT22;18810;53.040;8.850;2022-08-14T12:41:28;36.60;56.10
32334;DHT22;18810;53.040;8.850;2022-08-14T12:44:02;36.60;55.80
32334;DHT22;18810;53.040;8.850;2022-08-14T12:46:37;37.00;55.50
32334;DHT22;18810;53.040;8.850;2022-08-14T12:49:13;37.00;55.10
32334;DHT22;18810;53.040;8.850;2022-08-14T12:51:41;36.90;54.60
32334;DHT22;18810;53.040;8.850;2022-08-14T12:54:18;36.70;55.40
32334;DHT22;18810;53.040;8.850;2022-08-14T12:56:45;36.70;55.00
32334;DHT22;18810;53.040;8.850;2022-08-14T12:59:12;36.20;56.00
32334;DHT22;18810;53.040;8.850;2022-08-14T13:01:39;35.90;57.00
32334;DHT22;18810;53.040;8.850;2022-08-14T13:04:06;35.70;57.60
32334;DHT22;18810;53.040;8.850;2022-08-14T13:06:36;35.30;56.60
32334;DHT22;18810;53.040;8.850;2022-08-14T13:09:03;35.40;56.50
32334;DHT22;18810;53.040;8.850;2022-08-14T13:11:56;34.80;57.30
32334;DHT22;18810;53.040;8.850;2022-08-14T13:14:24;35.00;57.20
32334;DHT22;18810;53.040;8.850;2022-08-14T13:16:55;35.50;56.30
32334;DHT22;18810;53.040;8.850;2022-08-14T13:19:22;35.90;55.30
32334;DHT22;18810;53.040;8.850;2022-08-14T13:21:51;36.20;56.10
32334;DHT22;18810;53.040;8.850;2022-08-14T13:24:19;36.50;55.40
32334;DHT22;18810;53.040;8.850;2022-08-14T13:26:47;37.00;54.40
32334;DHT22;18810;53.040;8.850;2022-08-14T13:29:18;36.60;54.20
32334;DHT22;18810;53.040;8.850;2022-08-14T13:31:48;36.40;54.70
32334;DHT22;18810;53.040;8.850;2022-08-14T13:34:18;35.50;55.90
32334;DHT22;18810;53.040;8.850;2022-08-14T13:36:45;35.40;56.50
32334;DHT22;18810;53.040;8.850;2022-08-14T13:39:15;35.20;56.90
32334;DHT22;18810;53.040;8.850;2022-08-14T13:41:42;35.30;57.40
32334;DHT22;18810;53.040;8.850;2022-08-14T13:44:08;35.60;57.50
32334;DHT22;18810;53.040;8.850;2022-08-14T13:46:34;36.50;55.40
32334;DHT22;18810;53.040;8.850;2022-08-14T13:49:00;36.80;55.40
32334;DHT22;18810;53.040;8.850;2022-08-14T13:51:29;36.90;56.80
32334;DHT22;18810;53.040;8.850;2022-08-14T13:53:56;37.40;53.80
32334;DHT22;18810;53.040;8.850;2022-08-14T13:56:27;37.40;54.30
32334;DHT22;18810;53.040;8.850;2022-08-14T13:58:56;37.90;53.50
32334;DHT22;18810;53.040;8.850;2022-08-14T14:01:24;37.80;54.00
32334;DHT22;18810;53.040;8.850;2022-08-14T14:03:54;37.20;54.10
32334;DHT22;18810;53.040;8.850;2022-08-14T14:06:23;36.60;54.70
32334;DHT22;18810;53.040;8.850;2022-08-14T14:08:53;36.40;54.80
32334;DHT22;18810;53.040;8.850;2022-08-14T14:11:20;36.40;55.20
32334;DHT22;18810;53.040;8.850;2022-08-14T14:13:55;36.30;55.60
32334;DHT22;18810;53.040;8.850;2022-08-14T14:16:21;36.30;54.90
32334;DHT22;18810;53.040;8.850;2022-08-14T14:18:49;36.50;54.80
32334;DHT22;18810;53.040;8.850;2022-08-14T14:21:23;36.60;55.30
32334;DHT22;18810;53.040;8.850;2022-08-14T14:23:51;37.00;55.30
32334;DHT22;18810;53.040;8.850;2022-08-14T14:26:18;37.30;53.80
32334;DHT22;18810;53.040;8.850;2022-08-14T14:28:53;36.90;53.70
32334;DHT22;18810;53.040;8.850;2022-08-14T14:31:25;36.80;54.10
32334;DHT22;18810;53.040;8.850;2022-08-14T14:33:57;36.00;55.60
32334;DHT22;18810;53.040;8.850;2022-08-14T14:36:24;36.00;56.20
32334;DHT22;18810;53.040;8.850;2022-08-14T14:38:54;35.50;55.40
32334;DHT22;18810;53.040;8.850;2022-08-14T14:41:22;35.50;55.90
32334;DHT22;18810;53.040;8.850;2022-08-14T14:43:49;35.60;55.20
32334;DHT22;18810;53.040;8.850;2022-08-14T14:46:17;35.80;53.90
32334;DHT22;18810;53.040;8.850;2022-08-14T14:48:46;36.10;53.60
32334;DHT22;18810;53.040;8.850;2022-08-14T14:51:13;36.20;54.20
32334;DHT22;18810;53.040;8.850;2022-08-14T14:53:41;36.50;53.60
32334;DHT22;18810;53.040;8.850;2022-08-14T14:56:07;36.40;53.30
32334;DHT22;18810;53.040;8.850;2022-08-14T14:58:39;36.60;51.70
32334;DHT22;18810;53.040;8.850;2022-08-14T15:01:05;36.50;52.10
32334;DHT22;18810;53.040;8.850;2022-08-14T15:03:39;36.60;52.10
32334;DHT22;18810;53.040;8.850;2022-08-14T15:06:07;36.70;51.80
32334;DHT22;18810;53.040;8.850;2022-08-14T15:08:33;36.60;52.00
32334;DHT22;18810;53.040;8.850;2022-08-14T15:10:59;36.90;51.40
32334;DHT22;18810;53.040;8.850;2022-08-14T15:13:26;37.00;51.90
32334;DHT22;18810;53.040;8.850;2022-08-14T15:15:52;36.50;52.50
32334;DHT22;18810;53.040;8.850;2022-08-14T15:18:24;36.50;52.70
32334;DHT22;18810;53.040;8.850;2022-08-14T15:20:51;35.80;52.70
32334;DHT22;18810;53.040;8.850;2022-08-14T15:23:19;35.80;53.30
32334;DHT22;18810;53.040;8.850;2022-08-14T15:25:46;35.90;52.20
32334;DHT22;18810;53.040;8.850;2022-08-14T15:28:12;36.00;52.80
32334;DHT22;18810;53.040;8.850;2022-08-14T15:30:39;36.40;52.40
32334;DHT22;18810;53.040;8.850;2022-08-14T15:33:05;36.40;52.20
32334;DHT22;18810;53.040;8.850;2022-08-14T15:35:30;36.30;52.70
32334;DHT22;18810;53.040;8.850;2022-08-14T15:37:58;36.50;52.30
32334;DHT22;18810;53.040;8.850;2022-08-14T15:40:42;36.30;51.80
32334;DHT22;18810;53.040;8.850;2022-08-14T15:43:08;35.80;52.90
32334;DHT22;18810;53.040;8.850;2022-08-14T15:45:37;35.60;53.00
32334;DHT22;18810;53.040;8.850;2022-08-14T15:48:06;35.70;53.30
32334;DHT22;18810;53.040;8.850;2022-08-14T15:50:32;35.20;53.30
32334;DHT22;18810;53.040;8.850;2022-08-14T15:52:58;35.10;53.50
32334;DHT22;18810;53.040;8.850;2022-08-14T15:55:23;35.10;54.10
32334;DHT22;18810;53.040;8.850;2022-08-14T15:57:49;35.10;54.00
32334;DHT22;18810;53.040;8.850;2022-08-14T16:00:15;35.30;54.00
32334;DHT22;18810;53.040;8.850;2022-08-14T16:03:01;36.10;53.70
32334;DHT22;18810;53.040;8.850;2022-08-14T16:05:27;36.10;52.80
32334;DHT22;18810;53.040;8.850;2022-08-14T16:07:54;36.10;53.20
32334;DHT22;18810;53.040;8.850;2022-08-14T16:10:21;35.60;52.50
32334;DHT22;18810;53.040;8.850;2022-08-14T16:12:47;35.60;53.00
32334;DHT22;18810;53.040;8.850;2022-08-14T16:15:14;35.60;53.30
32334;DHT22;18810;53.040;8.850;2022-08-14T16:17:40;35.60;53.70
32334;DHT22;18810;53.040;8.850;2022-08-14T16:20:07;35.90;53.10
32334;DHT22;18810;53.040;8.850;2022-08-14T16:22:33;36.20;53.30
32334;DHT22;18810;53.040;8.850;2022-08-14T16:25:00;36.50;51.90
32334;DHT22;18810;53.040;8.850;2022-08-14T16:27:26;36.30;51.90
32334;DHT22;18810;53.040;8.850;2022-08-14T16:29:52;36.10;52.10
32334;DHT22;18810;53.040;8.850;2022-08-14T16:32:18;35.60;53.00
32334;DHT22;18810;53.040;8.850;2022-08-14T16:34:44;35.60;53.60
32334;DHT22;18810;53.040;8.850;2022-08-14T16:37:12;35.40;53.60
32334;DHT22;18810;53.040;8.850;2022-08-14T16:39:40;35.10;53.40
32334;DHT22;18810;53.040;8.850;2022-08-14T16:42:07;34.70;54.10
32334;DHT22;18810;53.040;8.850;2022-08-14T16:44:35;34.70;54.50